Time;durP1;ratioP1;P1;durP2;ratioP2;P2;SDS_P1;SDS_P2;PMS_P1;PMS_P2;Temp;Humidity;BMP_temperature;BMP_pressure;BME280_temperature;BME280_humidity;BME280_pressure;Samples;Min_cycle;Max_cycle;Signal;HPM_P1;HPM_P2
2020/12/23 00:01:13;;;;;;;6.03;3.88;;;;;;;4.82;99.17;97110.84;5014695;28;20033;-68
2020/12/23 00:03:39;;;;;;;6.13;3.90;;;;;;;4.96;98.76;97113.41;5019761;28;20125;-67
2020/12/23 00:06:04;;;;;;;7.55;4.40;;;;;;;5.13;98.69;97107.16;5015879;28;20045;-67
2020/12/23 00:08:32;;;;;;;5.38;3.90;;;;;;;5.11;98.13;97109.41;5018719;28;20045;-68
2020/12/23 00:10:57;;;;;;;6.57;4.55;;;;;;;5.12;98.32;97105.59;5001976;28;20084;-68
2020/12/23 00:13:23;;;;;;;6.65;3.97;;;;;;;5.13;97.74;97109.88;4997220;28;20092;-68
2020/12/23 00:15:49;;;;;;;6.35;4.60;;;;;;;5.08;98.05;97113.56;5001417;28;20049;-68
2020/12/23 00:18:14;;;;;;;7.57;4.70;;;;;;;5.03;98.34;97102.88;4996512;28;20050;-65
2020/12/23 00:20:39;;;;;;;14.23;7.63;;;;;;;4.98;97.76;97098.38;5002439;28;20394;-67
2020/12/23 00:23:05;;;;;;;21.13;10.10;;;;;;;4.96;98.14;97100.63;5005127;28;20437;-64
2020/12/23 00:25:30;;;;;;;13.05;8.57;;;;;;;5.00;98.75;97091.84;5019335;28;20045;-68
2020/12/23 00:27:56;;;;;;;11.60;7.63;;;;;;;4.97;99.22;97104.16;5022732;28;20049;-66
2020/12/23 00:30:21;;;;;;;9.73;5.63;;;;;;;5.00;99.17;97092.63;5017837;28;20140;-68
2020/12/23 00:32:47;;;;;;;7.55;4.97;;;;;;;4.96;99.01;97102.56;5021707;28;20183;-68
2020/12/23 00:35:12;;;;;;;7.97;5.30;;;;;;;4.94;99.09;97097.44;5018182;28;20044;-67
2020/12/23 00:37:38;;;;;;;7.10;5.18;;;;;;;4.96;99.09;97100.63;5022126;28;20053;-67
2020/12/23 00:40:05;;;;;;;11.27;5.30;;;;;;;4.96;99.08;97089.78;5017389;28;20458;-67
2020/12/23 00:42:30;;;;;;;6.82;4.90;;;;;;;4.92;99.34;97090.75;5014270;28;20045;-70
2020/12/23 00:44:58;;;;;;;8.68;5.20;;;;;;;4.90;99.51;97096.50;5020912;28;20517;-68
2020/12/23 00:47:24;;;;;;;6.15;4.57;;;;;;;5.03;99.61;97089.28;5015076;28;20592;-68
2020/12/23 00:49:50;;;;;;;6.63;4.30;;;;;;;5.04;98.74;97082.75;5033727;28;20037;-67
2020/12/23 00:52:15;;;;;;;5.97;3.83;;;;;;;5.02;98.81;97084.19;5034207;28;20049;-68
2020/12/23 00:54:40;;;;;;;6.65;3.78;;;;;;;4.96;98.25;97080.84;5021621;28;20427;-69
2020/12/23 00:57:06;;;;;;;6.03;4.35;;;;;;;4.89;98.33;97075.88;5016731;28;20045;-69
2020/12/23 00:59:31;;;;;;;10.32;5.80;;;;;;;4.87;98.55;97080.84;5016269;28;20140;-67
2020/12/23 01:01:58;;;;;;;6.35;4.35;;;;;;;4.87;98.99;97088.97;5021263;28;20042;-66
2020/12/23 01:04:24;;;;;;;7.65;3.72;;;;;;;4.90;98.46;97088.34;5015328;28;20045;-68
2020/12/23 01:06:50;;;;;;;4.05;3.03;;;;;;;4.79;98.31;97089.78;5011712;28;20100;-68
2020/12/23 01:09:15;;;;;;;5.03;3.85;;;;;;;4.71;97.99;97075.09;4996003;28;20077;-67
2020/12/23 01:11:41;;;;;;;5.63;3.95;;;;;;;4.68;98.22;97072.22;5000774;28;20052;-68
2020/12/23 01:14:06;;;;;;;6.13;4.53;;;;;;;4.57;98.37;97075.25;4995001;28;20046;-68
2020/12/23 01:16:31;;;;;;;8.00;4.35;;;;;;;4.53;98.39;97071.56;5000353;28;20057;-68
2020/12/23 01:18:57;;;;;;;6.53;4.22;;;;;;;4.54;98.54;97080.53;5016061;28;20089;-69
2020/12/23 01:21:22;;;;;;;7.30;4.35;;;;;;;4.52;98.50;97083.53;5007984;28;20396;-68
2020/12/23 01:23:48;;;;;;;7.22;5.40;;;;;;;4.65;99.61;97079.09;5005358;28;20050;-68
2020/12/23 01:26:13;;;;;;;6.07;4.28;;;;;;;4.67;99.33;97082.28;4995212;28;20042;-69
2020/12/23 01:28:39;;;;;;;8.13;5.80;;;;;;;4.70;99.58;97080.81;4999901;28;20506;-68
2020/12/23 01:31:05;;;;;;;6.93;4.07;;;;;;;4.68;99.16;97078.47;4996905;28;20427;-67
2020/12/23 01:33:31;;;;;;;5.32;4.32;;;;;;;4.68;99.36;97088.50;4999590;28;20377;-70
2020/12/23 01:35:56;;;;;;;6.93;4.85;;;;;;;4.64;98.90;97082.13;5000304;28;20042;-69
2020/12/23 01:38:22;;;;;;;11.88;7.05;;;;;;;4.58;99.12;97074.13;4996053;28;20248;-68
2020/12/23 01:40:54;;;;;;;6.53;4.28;;;;;;;4.60;99.00;97079.25;5001489;28;20038;-68
2020/12/23 01:43:19;;;;;;;6.20;3.78;;;;;;;4.62;99.01;97070.78;4982689;28;20048;-68
2020/12/23 01:45:44;;;;;;;5.13;3.53;;;;;;;4.60;99.06;97080.03;5001584;28;20038;-68
2020/12/23 01:48:28;;;;;;;4.82;3.47;;;;;;;4.47;98.59;97074.75;4996338;28;20049;-69
2020/12/23 01:50:53;;;;;;;3.83;2.90;;;;;;;4.42;98.79;97083.06;5000975;28;20088;-68
2020/12/23 01:53:19;;;;;;;4.72;2.75;;;;;;;4.49;98.58;97084.16;4989306;28;20041;-68
2020/12/23 01:55:46;;;;;;;5.50;3.00;;;;;;;4.49;98.14;97076.03;4999882;28;20057;-67
2020/12/23 01:58:12;;;;;;;4.82;3.10;;;;;;;4.57;97.99;97060.88;4995950;28;20048;-68
2020/12/23 02:00:39;;;;;;;6.20;4.22;;;;;;;4.60;97.84;97065.66;5000086;28;20037;-69
2020/12/23 02:03:08;;;;;;;5.30;3.83;;;;;;;4.56;97.91;97062.78;4994425;28;20050;-66
2020/12/23 02:05:34;;;;;;;5.15;4.00;;;;;;;4.60;98.12;97062.97;4990133;28;20050;-67
2020/12/23 02:07:59;;;;;;;4.70;3.60;;;;;;;4.83;97.67;97070.94;5001005;28;20041;-68
2020/12/23 02:10:25;;;;;;;5.15;3.42;;;;;;;4.91;97.48;97078.28;4995568;28;20490;-67
2020/12/23 02:12:52;;;;;;;5.50;3.97;;;;;;;5.01;97.07;97077.16;4999954;28;20042;-68
2020/12/23 02:15:17;;;;;;;3.92;3.13;;;;;;;5.12;96.95;97056.72;4996157;28;20066;-68
2020/12/23 02:17:43;;;;;;;5.13;3.22;;;;;;;5.10;96.56;97057.03;4999498;28;20139;-68
2020/12/23 02:20:11;;;;;;;5.78;4.20;;;;;;;5.05;96.46;97059.13;4994219;28;20402;-68
2020/12/23 02:22:37;;;;;;;8.25;4.30;;;;;;;5.14;96.56;97070.75;4997661;28;20046;-69
2020/12/23 02:25:04;;;;;;;5.30;4.03;;;;;;;5.24;96.74;97067.72;4994855;28;20096;-66
2020/12/23 02:27:30;;;;;;;4.30;3.25;;;;;;;5.33;95.52;97067.66;4996046;28;20046;-70
2020/12/23 02:29:57;;;;;;;5.15;3.45;;;;;;;5.22;95.07;97056.38;4996887;28;20141;-69
2020/12/23 02:32:24;;;;;;;3.40;2.78;;;;;;;5.15;95.74;97048.72;4992930;28;20508;-67
2020/12/23 02:34:50;;;;;;;4.60;3.30;;;;;;;5.12;95.68;97048.56;4999661;28;20124;-70
2020/12/23 02:37:16;;;;;;;5.25;3.38;;;;;;;5.14;95.93;97044.38;4992664;28;20050;-68
2020/12/23 02:39:45;;;;;;;4.47;3.40;;;;;;;5.26;95.62;97056.53;4999550;28;20054;-68
2020/12/23 02:42:10;;;;;;;4.68;3.15;;;;;;;5.26;95.81;97049.16;4995720;28;20515;-72
2020/12/23 02:44:36;;;;;;;5.47;3.08;;;;;;;5.31;95.72;97035.41;4999170;28;20050;-70
2020/12/23 02:47:09;;;;;;;3.38;2.70;;;;;;;5.31;95.71;97045.47;4998202;28;20458;-67
2020/12/23 02:49:35;;;;;;;6.35;2.70;;;;;;;5.38;95.10;97039.53;4996874;28;20041;-69
2020/12/23 02:52:01;;;;;;;4.90;2.83;;;;;;;5.33;94.51;97037.78;4999176;28;20446;-70
2020/12/23 02:54:26;;;;;;;4.25;3.40;;;;;;;5.21;94.75;97026.81;4992177;28;20548;-68
2020/12/23 02:56:51;;;;;;;5.40;3.60;;;;;;;5.16;95.19;97022.34;5001135;28;20601;-70
2020/12/23 02:59:18;;;;;;;7.53;3.85;;;;;;;5.04;96.82;97017.59;4995072;28;20128;-70
2020/12/23 03:01:44;;;;;;;6.13;4.25;;;;;;;5.01;96.95;97012.03;4999348;28;20042;-70
2020/12/23 03:04:10;;;;;;;5.47;3.83;;;;;;;4.92;96.94;97012.81;5012011;28;20433;-70
2020/12/23 03:06:35;;;;;;;6.18;4.13;;;;;;;4.98;97.03;97005.28;5014685;28;20038;-69
2020/12/23 03:09:05;;;;;;;7.20;4.47;;;;;;;5.08;97.44;97004.97;4998713;28;20133;-68
2020/12/23 03:11:30;;;;;;;23.65;12.27;;;;;;;5.05;98.08;96996.66;4998819;28;20117;-67
2020/12/23 03:13:56;;;;;;;10.00;5.90;;;;;;;5.09;98.16;96994.91;5010945;28;20121;-68
2020/12/23 03:16:21;;;;;;;12.32;7.43;;;;;;;5.12;98.11;96996.97;5004763;28;20596;-66
2020/12/23 03:18:46;;;;;;;6.20;4.88;;;;;;;5.10;97.97;96996.50;5015007;28;20046;-68
2020/12/23 03:21:12;;;;;;;10.93;6.10;;;;;;;5.05;97.50;97000.19;5029284;28;20048;-68
2020/12/23 03:23:38;;;;;;;4.47;3.75;;;;;;;5.24;97.35;96991.66;5033994;28;20092;-68
2020/12/23 03:26:04;;;;;;;8.00;6.22;;;;;;;5.19;97.15;96989.13;5016346;28;20044;-67
2020/12/23 03:28:31;;;;;;;7.10;4.63;;;;;;;5.22;97.18;96991.19;5016475;28;20037;-68
2020/12/23 03:30:56;;;;;;;5.93;3.80;;;;;;;5.24;97.00;96988.94;5017072;28;20083;-68
2020/12/23 03:33:22;;;;;;;8.00;4.63;;;;;;;5.24;96.84;96985.41;5011379;28;20384;-68
2020/12/23 03:35:47;;;;;;;5.22;3.97;;;;;;;5.36;97.48;96978.19;5019101;28;20063;-67
2020/12/23 03:38:13;;;;;;;5.20;3.67;;;;;;;5.38;96.74;96974.34;5013472;28;20060;-68
2020/12/23 03:40:38;;;;;;;6.15;3.70;;;;;;;5.40;96.62;96983.75;5019182;28;20045;-67
2020/12/23 03:43:04;;;;;;;4.82;3.55;;;;;;;5.41;96.29;96971.78;5027945;28;20486;-66
2020/12/23 03:45:30;;;;;;;7.60;4.30;;;;;;;5.30;97.65;96963.19;5019261;28;20139;-67
2020/12/23 03:47:56;;;;;;;6.90;4.75;;;;;;;5.20;97.50;96958.13;5020283;28;20048;-68
2020/12/23 03:50:22;;;;;;;5.85;3.90;;;;;;;5.22;97.37;96958.63;5005216;28;20552;-67
2020/12/23 03:52:47;;;;;;;6.15;4.00;;;;;;;5.28;97.60;96949.16;5004215;28;20050;-68
2020/12/23 03:55:13;;;;;;;6.68;4.45;;;;;;;5.28;97.34;96938.28;4998059;28;20046;-68
2020/12/23 03:57:38;;;;;;;8.75;4.03;;;;;;;5.28;97.26;96937.50;5001195;28;20046;-68
2020/12/23 04:00:09;;;;;;;6.03;4.15;;;;;;;5.28;97.75;96943.72;4998195;28;20045;-67
2020/12/23 04:02:35;;;;;;;5.93;4.13;;;;;;;5.34;97.60;96941.63;5002260;28;20069;-69
2020/12/23 04:05:00;;;;;;;5.85;4.18;;;;;;;5.49;97.21;96943.78;5004649;28;20042;-66
2020/12/23 04:07:27;;;;;;;4.15;3.40;;;;;;;5.57;97.14;96949.50;5002827;28;20461;-68
2020/12/23 04:09:52;;;;;;;5.35;3.83;;;;;;;5.56;96.63;96937.81;4998385;28;20034;-69
2020/12/23 04:12:18;;;;;;;5.03;3.35;;;;;;;5.55;96.14;96937.03;4995456;28;20079;-68
2020/12/23 04:14:44;;;;;;;9.80;4.20;;;;;;;5.55;96.20;96936.25;5002873;28;20041;-69
2020/12/23 04:17:09;;;;;;;8.48;4.10;;;;;;;5.50;95.79;96929.06;4997105;28;20048;-68
2020/12/23 04:19:34;;;;;;;8.05;3.20;;;;;;;5.45;95.94;96933.91;5002370;28;20462;-68
2020/12/23 04:22:00;;;;;;;4.50;3.20;;;;;;;5.47;96.11;96937.88;5002644;28;20037;-68
2020/12/23 04:24:26;;;;;;;5.03;3.30;;;;;;;5.52;96.56;96934.19;4995800;28;20049;-69
2020/12/23 04:26:52;;;;;;;4.18;3.22;;;;;;;5.57;96.14;96930.50;5002855;28;20103;-69
2020/12/23 04:29:17;;;;;;;3.17;2.70;;;;;;;5.51;95.72;96927.97;4997377;28;20046;-69
2020/12/23 04:31:42;;;;;;;4.60;2.95;;;;;;;5.50;95.76;96934.50;5000876;28;20099;-68
2020/12/23 04:34:08;;;;;;;5.30;3.58;;;;;;;5.53;95.70;96941.22;5011708;28;20109;-67
2020/12/23 04:36:33;;;;;;;5.60;3.70;;;;;;;5.53;95.78;96939.28;5013188;28;20133;-68
2020/12/23 04:38:59;;;;;;;6.35;3.22;;;;;;;5.64;95.77;96937.00;5002284;28;20042;-68
2020/12/23 04:41:27;;;;;;;3.90;3.10;;;;;;;5.70;95.11;96943.03;4994388;28;20048;-67
2020/12/23 04:43:52;;;;;;;4.20;3.00;;;;;;;5.74;95.44;96938.53;5002209;28;20049;-68
2020/12/23 04:46:23;;;;;;;3.88;2.80;;;;;;;5.74;95.37;96931.19;4999677;28;20046;-68
2020/12/23 04:48:56;;;;;;;9.60;2.88;;;;;;;5.71;95.02;96931.84;5022615;28;20069;-68
2020/12/23 04:51:31;;;;;;;4.93;3.10;;;;;;;5.81;94.08;96921.72;5018104;28;21100;-68
2020/12/23 04:53:58;;;;;;;5.78;2.70;;;;;;;5.78;94.82;96931.31;5003942;28;20045;-68
2020/12/23 04:56:26;;;;;;;4.05;2.65;;;;;;;5.79;94.67;96927.47;5015942;28;20240;-69
2020/12/23 04:58:52;;;;;;;4.85;2.70;;;;;;;5.73;94.87;96918.72;5021859;28;20521;-68
2020/12/23 05:01:18;;;;;;;2.88;2.58;;;;;;;5.69;94.48;96915.06;5028242;28;20045;-66
2020/12/23 05:03:44;;;;;;;4.68;2.70;;;;;;;5.67;94.58;96916.50;5036422;28;20059;-66
2020/12/23 05:06:10;;;;;;;4.65;3.30;;;;;;;5.63;94.79;96912.88;5015717;28;20107;-67
2020/12/23 05:08:35;;;;;;;4.07;2.70;;;;;;;5.58;95.24;96922.00;5002840;28;20633;-68
2020/12/23 05:11:08;;;;;;;3.95;2.55;;;;;;;5.57;95.16;96922.34;5002294;28;20041;-67
2020/12/23 05:13:38;;;;;;;3.92;2.83;;;;;;;5.53;94.89;96917.56;5000956;28;20532;-68
2020/12/23 05:16:09;;;;;;;4.88;2.83;;;;;;;5.59;94.88;96917.38;4998720;28;20132;-67
2020/12/23 05:18:37;;;;;;;4.63;3.08;;;;;;;5.59;95.65;96928.25;4999537;28;20438;-69
2020/12/23 05:21:14;;;;;;;3.42;2.28;;;;;;;5.58;95.52;96929.34;4998236;28;20045;-67
2020/12/23 05:23:44;;;;;;;4.05;3.00;;;;;;;5.50;95.58;96926.34;5000912;28;20152;-70
2020/12/23 05:26:09;;;;;;;7.50;3.22;;;;;;;5.43;95.48;96930.72;4996578;28;20042;-68
2020/12/23 05:28:36;;;;;;;5.05;3.10;;;;;;;5.63;95.63;96929.16;5000872;28;20477;-67
2020/12/23 05:31:15;;;;;;;4.45;3.00;;;;;;;5.72;95.41;96929.91;5001230;28;20042;-67
2020/12/23 05:33:44;;;;;;;5.68;3.90;;;;;;;5.43;94.87;96936.94;5001215;28;20132;-67
2020/12/23 05:36:15;;;;;;;5.93;3.40;;;;;;;5.46;95.33;96939.00;4993897;28;20046;-69
2020/12/23 05:38:41;;;;;;;5.38;3.60;;;;;;;5.60;95.44;96940.69;5001761;28;20077;-69
2020/12/23 05:41:11;;;;;;;5.13;3.30;;;;;;;5.55;94.99;96928.88;4995540;28;20041;-68
2020/12/23 05:43:37;;;;;;;5.38;3.55;;;;;;;5.52;94.94;96934.97;5000948;28;20133;-66
2020/12/23 05:46:05;;;;;;;5.18;3.70;;;;;;;5.58;95.34;96935.56;4998332;28;20042;-64
2020/12/23 05:48:31;;;;;;;4.70;3.47;;;;;;;5.55;95.52;96944.41;5021346;28;20044;-67
2020/12/23 05:50:58;;;;;;;6.03;3.10;;;;;;;5.20;96.13;96925.53;5019369;28;20533;-67
2020/12/23 05:53:27;;;;;;;4.65;3.50;;;;;;;5.02;97.93;96932.94;5009271;28;20515;-69
2020/12/23 05:55:54;;;;;;;6.13;3.50;;;;;;;5.06;97.82;96927.66;5020357;28;20037;-69
2020/12/23 05:58:24;;;;;;;6.75;4.10;;;;;;;5.03;98.13;96923.69;5015503;28;20042;-68
2020/12/23 06:00:51;;;;;;;6.13;4.15;;;;;;;5.10;98.08;96923.19;5019561;28;20033;-68
2020/12/23 06:03:40;;;;;;;8.65;4.03;;;;;;;5.16;98.40;96917.25;5011565;28;20041;-68
2020/12/23 06:06:06;;;;;;;6.97;4.77;;;;;;;5.11;97.74;96913.91;5013551;28;20042;-67
2020/12/23 06:08:33;;;;;;;6.90;4.20;;;;;;;5.12;97.77;96908.16;4997419;28;20811;-69
2020/12/23 06:11:30;;;;;;;6.78;4.53;;;;;;;5.23;97.84;96915.94;4999232;28;20088;-66
2020/12/23 06:14:10;;;;;;;6.43;3.83;;;;;;;5.25;97.68;96908.28;5000072;28;20077;-66
2020/12/23 06:16:36;;;;;;;11.32;6.35;;;;;;;5.30;97.54;96916.25;4992061;28;20041;-67
2020/12/23 06:19:11;;;;;;;11.80;6.55;;;;;;;5.28;97.83;96913.06;4994461;28;20069;-68
2020/12/23 06:21:38;;;;;;;6.32;4.13;;;;;;;5.48;97.05;96909.59;4992954;28;20408;-68
2020/12/23 06:24:11;;;;;;;6.30;3.53;;;;;;;5.39;96.48;96914.28;4995978;28;20073;-67
2020/12/23 06:26:38;;;;;;;4.63;3.30;;;;;;;5.40;96.63;96906.91;4999677;28;20165;-68
2020/12/23 06:29:07;;;;;;;6.35;3.78;;;;;;;5.42;96.77;96912.81;4996560;28;20038;-67
2020/12/23 06:31:47;;;;;;;4.35;3.22;;;;;;;5.44;96.43;96905.94;4999303;28;20058;-68
2020/12/23 06:34:17;;;;;;;8.75;4.70;;;;;;;5.32;96.04;96908.56;4992298;28;20049;-67
2020/12/23 06:36:44;;;;;;;8.52;4.38;;;;;;;5.55;95.63;96907.16;5000219;28;20137;-67
2020/12/23 06:39:32;;;;;;;5.97;4.55;;;;;;;5.52;95.64;96898.88;4987973;28;20046;-68
2020/12/23 06:42:00;;;;;;;4.38;2.92;;;;;;;5.52;95.91;96907.81;4997814;28;20061;-66
2020/12/23 06:44:45;;;;;;;6.22;3.75;;;;;;;5.49;96.11;96899.50;4993638;28;20492;-66
2020/12/23 06:47:13;;;;;;;4.82;3.10;;;;;;;5.71;95.54;96912.03;4998191;28;20582;-69
2020/12/23 06:49:40;;;;;;;5.72;3.30;;;;;;;5.74;94.98;96908.63;4998170;28;20054;-69
2020/12/23 06:52:24;;;;;;;9.60;3.95;;;;;;;5.71;94.63;96901.94;4990149;28;20037;-66
2020/12/23 06:54:49;;;;;;;8.00;4.78;;;;;;;5.53;94.77;96906.69;4998146;28;20067;-68
2020/12/23 06:57:36;;;;;;;7.53;3.65;;;;;;;5.48;95.09;96915.03;4991844;28;21910;-68
2020/12/23 07:00:20;;;;;;;4.60;3.28;;;;;;;5.47;95.36;96916.13;4993920;28;20070;-67
2020/12/23 07:02:48;;;;;;;6.07;3.42;;;;;;;5.42;95.47;96910.09;5006098;28;20077;-70
2020/12/23 07:05:23;;;;;;;4.53;2.90;;;;;;;5.46;95.40;96911.84;4991259;28;20111;-69
2020/12/23 07:07:56;;;;;;;5.97;3.35;;;;;;;5.49;95.84;96903.03;4998637;28;20081;-68
2020/12/23 07:10:50;;;;;;;6.25;3.30;;;;;;;5.53;95.90;96906.69;4990856;28;20589;-69
2020/12/23 07:13:18;;;;;;;8.02;4.22;;;;;;;5.61;95.56;96902.31;4987464;28;20042;-67
2020/12/23 07:15:50;;;;;;;9.65;5.88;;;;;;;5.53;95.57;96901.25;4997315;28;20137;-69
2020/12/23 07:18:17;;;;;;;10.13;6.63;;;;;;;5.59;95.51;96901.84;4985679;28;20050;-69
2020/12/23 07:20:49;;;;;;;7.18;4.25;;;;;;;5.74;95.29;96901.28;4997278;28;20041;-68
2020/12/23 07:23:17;;;;;;;6.40;3.63;;;;;;;5.84;94.68;96900.09;4990498;28;20046;-69
2020/12/23 07:25:51;;;;;;;7.22;3.45;;;;;;;5.90;93.85;96898.75;5003528;28;20606;-68
2020/12/23 07:28:36;;;;;;;4.45;2.92;;;;;;;5.87;94.18;96899.44;4996871;28;20076;-68
2020/12/23 07:31:03;;;;;;;5.35;2.60;;;;;;;5.82;93.73;96896.91;5003207;28;20127;-68
2020/12/23 07:33:29;;;;;;;4.25;3.28;;;;;;;5.86;94.34;96895.13;4997794;28;20135;-68
2020/12/23 07:35:57;;;;;;;4.90;2.50;;;;;;;5.81;93.86;96892.59;4998130;28;20046;-69
2020/12/23 07:38:24;;;;;;;5.53;3.05;;;;;;;5.74;94.17;96886.88;4997636;28;20069;-69
2020/12/23 07:40:51;;;;;;;8.60;4.97;;;;;;;5.72;94.35;96898.09;5002283;28;20486;-69
2020/12/23 07:43:17;;;;;;;5.90;3.88;;;;;;;5.76;94.11;96895.50;4995075;28;20034;-67
2020/12/23 07:45:44;;;;;;;18.25;10.52;;;;;;;5.67;94.08;96901.03;5010861;28;20477;-68
2020/12/23 07:48:14;;;;;;;21.50;10.15;;;;;;;5.70;94.46;96905.00;5006297;28;20129;-68
2020/12/23 07:50:41;;;;;;;21.20;13.68;;;;;;;5.77;93.87;96899.03;5011860;28;20054;-67
2020/12/23 07:53:30;;;;;;;16.15;7.72;;;;;;;5.85;93.80;96898.97;4998982;28;20052;-67
2020/12/23 07:56:05;;;;;;;6.22;3.88;;;;;;;5.92;93.80;96904.69;5000679;28;20173;-67
2020/12/23 07:58:39;;;;;;;7.20;5.80;;;;;;;5.77;93.97;96894.38;4999724;28;20046;-68
2020/12/23 08:01:07;;;;;;;3.63;2.95;;;;;;;5.77;92.48;96907.19;4997468;28;20134;-65
2020/12/23 08:03:33;;;;;;;4.55;2.95;;;;;;;5.85;92.05;96904.41;5002106;28;20061;-66
2020/12/23 08:06:10;;;;;;;6.60;3.25;;;;;;;6.00;92.54;96907.69;5001706;28;20038;-67
2020/12/23 08:08:37;;;;;;;8.10;4.22;;;;;;;6.09;93.01;96909.22;4996243;28;20050;-68
2020/12/23 08:11:15;;;;;;;3.95;2.97;;;;;;;6.18;92.82;96911.09;4998796;28;20069;-69
2020/12/23 08:13:42;;;;;;;7.47;5.35;;;;;;;6.18;90.92;96911.88;5010519;28;20030;-68
2020/12/23 08:16:09;;;;;;;11.20;5.10;;;;;;;6.32;91.79;96906.16;5012835;28;20042;-68
2020/12/23 08:18:36;;;;;;;4.20;2.72;;;;;;;6.43;91.76;96914.72;5001127;28;20702;-68
2020/12/23 08:21:13;;;;;;;5.55;3.17;;;;;;;6.56;91.73;96912.81;4998971;28;20056;-67
2020/12/23 08:23:41;;;;;;;3.88;2.45;;;;;;;6.65;90.86;96906.16;4997152;28;20883;-67
2020/12/23 08:26:11;;;;;;;4.40;2.70;;;;;;;6.70;90.63;96899.72;4995797;28;20042;-68
2020/12/23 08:28:38;;;;;;;3.40;1.98;;;;;;;6.50;89.58;96895.91;4995717;28;20052;-69
2020/12/23 08:31:06;;;;;;;3.30;2.00;;;;;;;6.38;89.95;96896.66;4992954;28;20042;-67
2020/12/23 08:33:34;;;;;;;4.07;2.40;;;;;;;6.50;89.85;96893.97;5001037;28;20085;-70
2020/12/23 08:36:01;;;;;;;5.20;2.92;;;;;;;6.60;90.39;96890.03;4999260;28;20060;-68
2020/12/23 08:38:27;;;;;;;5.32;2.80;;;;;;;6.67;90.27;96887.56;4994468;28;20133;-69
2020/12/23 08:40:54;;;;;;;4.97;3.40;;;;;;;6.71;90.82;96893.13;5001593;28;20196;-67
2020/12/23 08:43:22;;;;;;;5.47;3.20;;;;;;;6.81;91.19;96889.97;5014619;28;20124;-67
2020/12/23 08:45:48;;;;;;;11.48;3.22;;;;;;;6.89;90.43;96880.13;5010427;28;20096;-68
2020/12/23 08:48:21;;;;;;;4.28;2.95;;;;;;;7.00;90.81;96870.38;4977325;28;20043;-68
2020/12/23 08:50:54;;;;;;;7.95;3.78;;;;;;;7.01;89.24;96869.25;5009743;28;20041;-68
2020/12/23 08:53:38;;;;;;;6.60;3.17;;;;;;;6.94;88.39;96873.66;5013159;28;20037;-68
2020/12/23 08:56:33;;;;;;;4.15;3.03;;;;;;;6.96;89.73;96872.19;5019232;28;20037;-68
2020/12/23 08:58:59;;;;;;;5.32;2.45;;;;;;;7.03;87.68;96877.06;5021827;28;20057;-67
2020/12/23 09:01:26;;;;;;;4.07;2.90;;;;;;;7.11;87.99;96876.16;5015231;28;20750;-68
2020/12/23 09:03:58;;;;;;;5.82;2.50;;;;;;;7.02;86.19;96872.75;5001393;28;20042;-68
2020/12/23 09:06:24;;;;;;;7.45;4.65;;;;;;;7.05;86.69;96870.16;4996620;28;20691;-70
2020/12/23 09:08:49;;;;;;;4.18;2.90;;;;;;;7.09;88.09;96862.09;5001966;28;20045;-69
2020/12/23 09:11:14;;;;;;;3.63;2.35;;;;;;;7.10;87.02;96873.81;4994823;28;20465;-69
2020/12/23 09:13:40;;;;;;;7.38;5.65;;;;;;;7.01;86.33;96865.72;5000479;28;20561;-69
2020/12/23 09:16:05;;;;;;;9.85;6.10;;;;;;;7.14;87.14;96864.59;4995501;28;20438;-68
2020/12/23 09:18:31;;;;;;;9.75;4.75;;;;;;;7.22;88.14;96862.88;5000752;28;20152;-69
2020/12/23 09:21:06;;;;;;;6.97;3.40;;;;;;;7.34;87.93;96862.09;5002133;28;20400;-68
2020/12/23 09:23:31;;;;;;;11.00;5.03;;;;;;;7.50;88.01;96854.81;5000836;28;20038;-69
2020/12/23 09:25:57;;;;;;;8.05;3.90;;;;;;;7.56;87.42;96852.66;5000394;28;20034;-67
2020/12/23 09:28:28;;;;;;;13.18;4.80;;;;;;;7.65;87.34;96853.31;4995063;28;20083;-68
2020/12/23 09:30:59;;;;;;;7.07;3.65;;;;;;;7.75;87.08;96858.31;5001168;28;20045;-68
2020/12/23 09:33:25;;;;;;;5.95;3.08;;;;;;;7.89;86.34;96859.88;4989820;28;20046;-69
2020/12/23 09:36:05;;;;;;;6.75;3.33;;;;;;;7.89;85.72;96857.94;5001627;28;20048;-69
2020/12/23 09:38:34;;;;;;;5.78;3.22;;;;;;;7.85;86.84;96860.56;4997355;28;20056;-68
2020/12/23 09:41:06;;;;;;;4.55;2.90;;;;;;;7.86;87.19;96853.16;5000964;28;20068;-68
2020/12/23 09:43:35;;;;;;;5.68;3.10;;;;;;;7.85;86.30;96846.94;5000833;28;20387;-68
2020/12/23 09:46:05;;;;;;;4.95;3.17;;;;;;;7.90;86.45;96848.59;4997591;28;20034;-68
2020/12/23 09:48:31;;;;;;;;;;;;;;;7.90;86.85;96845.88;5001444;28;20383;-69
2020/12/23 09:50:57;;;;;;;20.70;9.93;;;;;;;7.93;85.77;96837.00;5000724;28;19917;-73
2020/12/23 09:53:24;;;;;;;7.00;3.60;;;;;;;7.99;85.92;96838.34;4989915;28;20058;-69
2020/12/23 09:55:50;;;;;;;4.80;2.83;;;;;;;8.09;86.39;96836.28;4998871;28;20042;-69
2020/12/23 09:58:16;;;;;;;6.15;3.10;;;;;;;8.13;86.67;96824.31;4995745;28;20526;-69
2020/12/23 10:00:43;;;;;;;4.75;3.30;;;;;;;8.13;86.54;96829.78;4996919;28;20111;-69
2020/12/23 10:03:09;;;;;;;8.20;3.33;;;;;;;8.23;86.72;96825.78;4993476;28;20042;-70
2020/12/23 10:05:36;;;;;;;4.63;3.20;;;;;;;8.29;86.13;96820.84;5000878;28;20049;-69
2020/12/23 10:08:03;;;;;;;5.90;2.97;;;;;;;8.36;86.94;96810.91;4997531;28;20046;-69
2020/12/23 10:10:28;;;;;;;4.30;2.83;;;;;;;8.52;86.45;96810.19;4993613;28;20037;-70
2020/12/23 10:12:54;;;;;;;4.35;2.50;;;;;;;8.61;85.62;96797.16;4997020;28;20680;-70
2020/12/23 10:15:19;;;;;;;3.30;1.52;;;;;;;8.56;79.03;96797.41;4993724;28;20072;-70
2020/12/23 10:17:45;;;;;;;5.80;2.50;;;;;;;8.70;81.73;96792.31;4998618;28;20072;-69
2020/12/23 10:20:11;;;;;;;4.13;2.58;;;;;;;8.89;82.50;96793.53;4994169;28;20494;-69
2020/12/23 10:22:37;;;;;;;6.35;3.28;;;;;;;9.01;82.75;96787.22;4998125;28;20061;-70
2020/12/23 10:25:04;;;;;;;8.52;3.30;;;;;;;9.13;83.45;96779.69;5000380;28;20148;-68
2020/12/23 10:27:29;;;;;;;4.50;3.35;;;;;;;9.31;82.94;96779.28;4999031;28;20141;-67
2020/12/23 10:29:55;;;;;;;3.63;2.40;;;;;;;9.53;79.92;96775.09;5000217;28;20133;-68
2020/12/23 10:32:20;;;;;;;5.97;2.97;;;;;;;9.61;79.93;96770.56;4993156;28;20050;-68
2020/12/23 10:34:46;;;;;;;4.15;2.20;;;;;;;9.77;79.98;96766.63;4998766;28;20077;-68
2020/12/23 10:37:16;;;;;;;3.88;2.33;;;;;;;9.55;78.62;96754.44;4994250;28;20042;-68
2020/12/23 10:39:42;;;;;;;15.68;7.47;;;;;;;9.79;80.26;96760.78;4998366;28;20061;-68
2020/12/23 10:42:07;;;;;;;5.15;2.38;;;;;;;9.93;78.58;96749.34;4995131;28;20046;-67
2020/12/23 10:44:33;;;;;;;7.63;3.42;;;;;;;10.00;77.12;96737.75;4999856;28;20073;-68
2020/12/23 10:46:59;;;;;;;4.70;2.13;;;;;;;10.42;75.88;96729.56;4989805;28;20518;-68
2020/12/23 10:49:25;;;;;;;5.28;2.05;;;;;;;10.77;73.89;96733.25;4990829;28;20042;-68
2020/12/23 10:51:53;;;;;;;3.58;2.42;;;;;;;11.05;73.07;96721.94;4999481;28;20045;-68
2020/12/23 10:54:19;;;;;;;4.03;2.20;;;;;;;10.71;75.34;96713.59;4994317;28;20798;-68
2020/12/23 10:56:45;;;;;;;6.78;2.72;;;;;;;11.04;75.58;96709.41;4999478;28;20132;-67
2020/12/23 10:59:11;;;;;;;3.72;2.00;;;;;;;11.18;75.55;96704.13;4998317;28;20108;-68
2020/12/23 11:01:36;;;;;;;4.10;2.22;;;;;;;11.25;73.46;96701.50;5002054;28;20415;-68
2020/12/23 11:04:02;;;;;;;3.83;2.10;;;;;;;11.23;73.74;96694.78;5001792;28;20054;-68
2020/12/23 11:06:28;;;;;;;4.10;2.40;;;;;;;11.32;72.12;96700.00;4999087;28;20058;-69
2020/12/23 11:08:53;;;;;;;3.88;2.00;;;;;;;11.31;73.09;96698.41;5003204;28;20045;-68
2020/12/23 11:11:20;;;;;;;5.90;2.38;;;;;;;11.24;68.49;96685.41;4998083;28;20080;-68
2020/12/23 11:13:45;;;;;;;5.75;2.80;;;;;;;11.20;70.34;96688.09;5001829;28;20049;-67
2020/12/23 11:16:17;;;;;;;3.97;2.10;;;;;;;10.70;70.25;96687.38;4998510;28;20045;-69
2020/12/23 11:18:45;;;;;;;10.70;4.05;;;;;;;10.97;70.52;96687.38;5002050;28;20050;-68
2020/12/23 11:21:12;;;;;;;4.65;2.13;;;;;;;11.14;70.50;96675.09;4997594;28;20137;-68
2020/12/23 11:23:38;;;;;;;3.95;2.03;;;;;;;11.09;68.93;96677.00;4998722;28;20073;-68
2020/12/23 11:26:03;;;;;;;4.35;2.17;;;;;;;11.27;67.84;96669.00;4999832;28;20128;-67
2020/12/23 11:28:32;;;;;;;3.53;2.03;;;;;;;11.33;67.67;96663.22;5001059;28;20053;-67
2020/12/23 11:30:59;;;;;;;3.88;2.03;;;;;;;11.42;66.78;96661.75;5002001;28;20053;-67
2020/12/23 11:33:27;;;;;;;3.85;1.48;;;;;;;11.31;67.69;96660.03;5009172;28;20046;-66
2020/12/23 11:35:52;;;;;;;7.78;2.30;;;;;;;11.40;66.77;96644.09;5002313;28;20531;-68
2020/12/23 11:38:18;;;;;;;3.03;1.90;;;;;;;11.42;66.13;96650.78;4997347;28;20071;-68
2020/12/23 11:40:43;;;;;;;4.03;2.00;;;;;;;11.38;65.89;96641.72;5003446;28;20136;-68
2020/12/23 11:43:09;;;;;;;6.32;2.30;;;;;;;11.40;66.31;96639.41;4996417;28;20120;-68
2020/12/23 11:45:34;;;;;;;5.15;2.30;;;;;;;11.45;66.77;96641.00;5002239;28;20062;-68